createdAt,value
2022-08-05T00:00:16.369Z,94.58
2022-08-05T00:02:51.577Z,94.61
2022-08-05T00:06:02.764Z,94.45
2022-08-05T00:08:35.216Z,93.47
2022-08-05T00:11:00.544Z,93.77
2022-08-05T00:13:38.525Z,93.70
2022-08-05T00:16:12.288Z,94.47
2022-08-05T00:18:42.372Z,94.47
2022-08-05T00:21:12.686Z,93.96
2022-08-05T00:23:46.141Z,93.35
2022-08-05T00:26:23.301Z,93.24
2022-08-05T00:28:51.966Z,92.71
2022-08-05T00:31:53.786Z,93.28
2022-08-05T00:34:54.817Z,91.73
2022-08-05T00:37:10.544Z,91.89
2022-08-05T00:39:41.573Z,91.98
2022-08-05T00:42:31.766Z,91.23
2022-08-05T00:45:00.444Z,90.71
2022-08-05T00:47:49.235Z,92.23
2022-08-05T00:50:16.451Z,92.84
2022-08-05T00:52:45.559Z,93.93
2022-08-05T00:55:15.055Z,94.11
2022-08-05T00:57:55.664Z,94.37
2022-08-05T01:00:27.781Z,94.03
2022-08-05T01:02:56.236Z,94.02
2022-08-05T01:05:24.852Z,93.55
2022-08-05T01:08:39.202Z,94.04
2022-08-05T01:10:52.205Z,94.52
2022-08-05T01:13:58.229Z,94.90
2022-08-05T01:16:26.481Z,96.41
2022-08-05T01:19:00.868Z,98.52
2022-08-05T01:21:58.255Z,98.42
2022-08-05T01:25:41.091Z,98.16
2022-08-05T01:28:21.852Z,99.46
2022-08-05T01:30:55.453Z,100.00
2022-08-05T01:33:35.326Z,100.00
2022-08-05T01:36:13.015Z,100.00
2022-08-05T01:38:46.017Z,100.00
2022-08-05T01:41:21.739Z,100.00
2022-08-05T01:43:53.760Z,100.00
2022-08-05T01:46:41.305Z,100.00
2022-08-05T01:49:24.368Z,100.00
2022-08-05T01:51:58.324Z,100.00
2022-08-05T01:54:31.139Z,100.00
2022-08-05T01:58:09.265Z,100.00
2022-08-05T01:59:52.686Z,100.00
2022-08-05T02:02:26.103Z,100.00
2022-08-05T02:04:59.340Z,100.00
2022-08-05T02:07:30.481Z,100.00
2022-08-05T02:09:58.935Z,100.00
2022-08-05T02:12:36.058Z,100.00
2022-08-05T02:15:12.372Z,100.00
2022-08-05T02:18:30.854Z,100.00
2022-08-05T02:20:41.441Z,100.00
2022-08-05T02:23:13.556Z,100.00
2022-08-05T02:25:49.722Z,100.00
2022-08-05T02:28:28.616Z,100.00
2022-08-05T02:31:04.122Z,100.00
2022-08-05T02:33:39.396Z,100.00
2022-08-05T02:36:13.305Z,100.00
2022-08-05T02:38:53.237Z,100.00
2022-08-05T02:41:23.225Z,100.00
2022-08-05T02:44:05.932Z,100.00
2022-08-05T02:46:53.536Z,100.00
2022-08-05T02:49:27.778Z,100.00
2022-08-05T02:52:08.743Z,100.00
2022-08-05T02:54:41.219Z,100.00
2022-08-05T02:58:09.460Z,100.00
2022-08-05T03:00:02.393Z,100.00
2022-08-05T03:02:36.552Z,100.00
2022-08-05T03:05:06.261Z,100.00
2022-08-05T03:08:00.937Z,100.00
2022-08-05T03:10:25.757Z,100.00
2022-08-05T03:12:55.085Z,100.00
2022-08-05T03:15:24.292Z,100.00
2022-08-05T03:17:55.626Z,100.00
2022-08-05T03:20:24.910Z,100.00
2022-08-05T03:22:57.252Z,100.00
2022-08-05T03:25:34.055Z,100.00
2022-08-05T03:28:18.723Z,100.00
2022-08-05T03:30:49.418Z,100.00
2022-08-05T03:33:18.919Z,100.00
2022-08-05T03:35:47.657Z,100.00
2022-08-05T03:38:16.376Z,100.00
2022-08-05T03:40:53.267Z,100.00
2022-08-05T03:44:09.335Z,100.00
2022-08-05T03:46:13.611Z,100.00
2022-08-05T03:48:45.338Z,100.00
2022-08-05T03:52:39.253Z,100.00
2022-08-05T03:55:54.775Z,100.00
2022-08-05T03:57:16.118Z,100.00
2022-08-05T03:59:54.835Z,100.00
2022-08-05T04:02:37.552Z,100.00
2022-08-05T04:05:10.951Z,100.00
2022-08-05T04:07:51.405Z,100.00
2022-08-05T04:10:27.872Z,100.00
2022-08-05T04:12:58.917Z,100.00
2022-08-05T04:15:27.771Z,100.00
2022-08-05T04:18:03.364Z,100.00
2022-08-05T04:20:32.636Z,100.00
2022-08-05T04:23:01.550Z,100.00
2022-08-05T04:25:56.639Z,100.00
2022-08-05T04:28:17.424Z,100.00
2022-08-05T04:30:45.634Z,100.00
2022-08-05T04:33:14.023Z,100.00
2022-08-05T04:36:10.847Z,100.00
2022-08-05T04:38:39.984Z,100.00
2022-08-05T04:41:09.568Z,100.00
2022-08-05T04:43:46.608Z,99.92
2022-08-05T04:46:28.188Z,97.16
2022-08-05T04:48:58.761Z,87.34
2022-08-05T04:51:30.515Z,81.97
2022-08-05T04:53:58.609Z,81.10
2022-08-05T04:56:34.467Z,79.01
2022-08-05T04:59:22.118Z,77.28
2022-08-05T05:02:35.645Z,76.11
2022-08-05T05:04:44.143Z,75.32
2022-08-05T05:07:18.215Z,74.80
2022-08-05T05:09:52.166Z,75.39
2022-08-05T05:12:22.209Z,75.45
2022-08-05T05:14:51.348Z,77.08
2022-08-05T05:17:23.953Z,74.95
2022-08-05T05:19:54.753Z,70.66
2022-08-05T05:22:26.009Z,67.59
2022-08-05T05:24:59.004Z,66.67
2022-08-05T05:27:41.552Z,67.12
2022-08-05T05:30:15.701Z,67.51
2022-08-05T05:33:00.867Z,66.34
2022-08-05T05:35:37.801Z,64.40
2022-08-05T05:38:09.212Z,64.43
2022-08-05T05:40:50.110Z,66.82
2022-08-05T05:43:21.888Z,65.61
2022-08-05T05:45:56.121Z,64.17
2022-08-05T05:48:27.755Z,62.40
2022-08-05T05:50:55.780Z,60.58
2022-08-05T05:53:24.992Z,60.15
2022-08-05T05:56:00.880Z,58.51
2022-08-05T05:58:32.218Z,59.52
2022-08-05T06:01:12.153Z,58.72
2022-08-05T06:04:01.272Z,59.47
2022-08-05T06:06:31.223Z,57.49
2022-08-05T06:09:03.862Z,56.12
2022-08-05T06:11:32.152Z,54.82
2022-08-05T06:14:00.409Z,54.86
2022-08-05T06:16:36.960Z,54.92
2022-08-05T06:19:07.298Z,54.29
2022-08-05T06:21:38.854Z,53.96
2022-08-05T06:24:12.789Z,55.44
2022-08-05T06:26:52.101Z,56.41
2022-08-05T06:29:43.103Z,56.58
2022-08-05T06:32:21.118Z,55.87
2022-08-05T06:34:56.345Z,55.86
2022-08-05T06:37:56.014Z,55.47
2022-08-05T06:40:18.363Z,55.64
2022-08-05T06:42:52.347Z,54.25
2022-08-05T06:45:45.108Z,53.22
2022-08-05T06:48:36.368Z,51.98
2022-08-05T06:50:58.333Z,52.03
2022-08-05T06:53:29.166Z,52.37
2022-08-05T06:55:59.419Z,52.58
2022-08-05T06:58:35.483Z,52.50
2022-08-05T07:01:07.244Z,52.11
2022-08-05T07:03:36.043Z,52.79
2022-08-05T07:06:05.748Z,51.02
2022-08-05T07:08:42.140Z,50.41
2022-08-05T07:11:15.255Z,51.29
2022-08-05T07:14:01.103Z,50.56
2022-08-05T07:18:02.050Z,51.11
2022-08-05T07:22:29.064Z,49.15
2022-08-05T07:25:24.117Z,48.97
2022-08-05T07:27:57.970Z,48.19
2022-08-05T07:30:32.417Z,48.38
2022-08-05T07:33:01.292Z,47.82
2022-08-05T07:35:56.717Z,47.08
2022-08-05T07:38:26.389Z,46.24
2022-08-05T07:42:09.175Z,46.09
2022-08-05T07:43:52.465Z,44.82
2022-08-05T07:46:25.457Z,44.40
2022-08-05T07:49:03.506Z,44.05
2022-08-05T07:51:41.143Z,43.85
2022-08-05T07:54:23.218Z,42.50
2022-08-05T07:57:13.658Z,42.04
2022-08-05T07:59:44.309Z,41.41
2022-08-05T08:02:15.719Z,40.56
2022-08-05T08:04:46.305Z,40.51
2022-08-05T08:07:15.000Z,39.81
2022-08-05T08:09:43.651Z,37.79
2022-08-05T08:12:35.396Z,38.63
2022-08-05T08:15:03.463Z,38.44
2022-08-05T08:17:32.759Z,39.13
2022-08-05T08:20:43.194Z,39.16
2022-08-05T08:22:53.488Z,38.73
2022-08-05T08:25:26.423Z,38.95
2022-08-05T08:27:55.190Z,39.42
2022-08-05T08:30:32.416Z,39.08
2022-08-05T08:33:04.524Z,36.80
2022-08-05T08:35:41.293Z,37.89
2022-08-05T08:38:36.166Z,36.84
2022-08-05T08:41:08.677Z,35.50
2022-08-05T08:45:16.823Z,35.03
2022-08-05T08:46:29.092Z,36.33
2022-08-05T08:49:07.523Z,35.85
2022-08-05T08:52:03.049Z,35.93
2022-08-05T08:54:33.635Z,35.18
2022-08-05T08:57:11.548Z,34.28
2022-08-05T08:59:41.806Z,33.97
2022-08-05T09:02:19.114Z,34.12
2022-08-05T09:05:16.359Z,34.82
2022-08-05T09:07:39.556Z,33.75
2022-08-05T09:10:27.010Z,32.05
2022-08-05T09:12:56.851Z,32.52
2022-08-05T09:15:32.504Z,32.45
2022-08-05T09:18:08.785Z,31.16
2022-08-05T09:20:38.291Z,29.93
2022-08-05T09:23:19.191Z,31.09
2022-08-05T09:26:02.417Z,30.92
2022-08-05T09:28:32.641Z,29.38
2022-08-05T09:31:22.661Z,27.53
2022-08-05T09:33:56.560Z,28.23
2022-08-05T09:36:27.878Z,27.34
2022-08-05T09:39:03.819Z,27.24
2022-08-05T09:42:00.829Z,26.73
2022-08-05T09:44:40.395Z,27.56
2022-08-05T09:47:14.017Z,27.76
2022-08-05T09:50:01.425Z,27.69
2022-08-05T09:52:32.472Z,27.37
2022-08-05T09:55:06.473Z,27.91
2022-08-05T09:57:54.564Z,28.90
2022-08-05T10:00:26.814Z,28.28
2022-08-05T10:02:58.409Z,27.81
2022-08-05T10:05:32.817Z,27.21
2022-08-05T10:08:35.203Z,28.97
2022-08-05T10:10:54.328Z,27.61
2022-08-05T10:13:43.921Z,28.67
2022-08-05T10:16:32.265Z,28.03
2022-08-05T10:19:08.479Z,27.49
2022-08-05T10:21:40.746Z,27.18
2022-08-05T10:24:13.010Z,26.96
2022-08-05T10:26:51.503Z,28.19
2022-08-05T10:29:23.841Z,28.05
2022-08-05T10:33:00.784Z,27.82
2022-08-05T10:35:00.710Z,27.89
2022-08-05T10:37:40.423Z,28.70
2022-08-05T10:40:27.849Z,28.83
2022-08-05T10:43:02.460Z,27.94
2022-08-05T10:45:41.897Z,27.52
2022-08-05T10:48:39.609Z,26.23
2022-08-05T10:51:23.219Z,26.12
2022-08-05T10:54:00.949Z,25.25
2022-08-05T10:56:32.318Z,26.08
2022-08-05T11:00:02.127Z,25.70
2022-08-05T11:02:34.410Z,26.27
2022-08-05T11:04:56.767Z,26.39
2022-08-05T11:07:32.871Z,25.80
2022-08-05T11:10:09.490Z,26.68
2022-08-05T11:12:50.827Z,26.51
2022-08-05T11:15:59.089Z,25.66
2022-08-05T11:18:29.848Z,26.31
2022-08-05T11:21:00.587Z,26.11
2022-08-05T11:24:03.064Z,26.60
2022-08-05T11:26:28.328Z,26.31
2022-08-05T11:29:11.979Z,26.76
2022-08-05T11:31:54.230Z,27.76
2022-08-05T11:34:52.037Z,26.62
2022-08-05T11:38:29.278Z,25.77
2022-08-05T11:41:14.130Z,25.99
2022-08-05T11:44:05.579Z,26.10
2022-08-05T11:46:36.930Z,25.53
2022-08-05T11:49:08.010Z,24.96
2022-08-05T11:51:44.169Z,25.51
2022-08-05T11:54:32.700Z,26.70
2022-08-05T11:57:08.196Z,25.52
2022-08-05T11:59:49.459Z,26.10
2022-08-05T12:02:30.542Z,25.94
2022-08-05T12:05:01.145Z,26.97
2022-08-05T12:08:09.629Z,27.75
2022-08-05T12:10:38.672Z,29.81
2022-08-05T12:13:16.766Z,30.00
2022-08-05T12:15:49.890Z,29.88
2022-08-05T12:18:20.498Z,28.46
2022-08-05T12:20:48.693Z,27.46
2022-08-05T12:23:17.274Z,27.79
2022-08-05T12:25:56.988Z,27.62
2022-08-05T12:28:32.817Z,28.09
2022-08-05T12:31:03.176Z,27.91
2022-08-05T12:33:36.439Z,28.73
2022-08-05T12:36:08.732Z,28.86
2022-08-05T12:38:39.681Z,29.67
2022-08-05T12:41:13.988Z,29.72
2022-08-05T12:43:56.279Z,29.88
2022-08-05T12:46:28.906Z,29.51
2022-08-05T12:48:58.816Z,29.34
2022-08-05T12:52:13.675Z,28.86
2022-08-05T12:54:23.393Z,28.09
2022-08-05T12:56:52.982Z,27.73
2022-08-05T12:59:47.004Z,27.11
2022-08-05T13:02:14.109Z,27.14
2022-08-05T13:04:54.401Z,27.15
2022-08-05T13:07:47.787Z,27.09
2022-08-05T13:10:14.419Z,26.70
2022-08-05T13:12:57.163Z,27.18
2022-08-05T13:15:41.903Z,27.22
2022-08-05T13:18:20.615Z,28.39
2022-08-05T13:20:49.870Z,28.72
2022-08-05T13:23:22.892Z,28.98
2022-08-05T13:25:59.355Z,29.66
2022-08-05T13:28:29.339Z,30.22
2022-08-05T13:31:00.371Z,31.06
2022-08-05T13:34:21.028Z,30.68
2022-08-05T13:36:30.385Z,30.60
2022-08-05T13:38:58.389Z,30.47
2022-08-05T13:41:36.053Z,30.03
2022-08-05T13:44:06.216Z,30.18
2022-08-05T13:46:43.797Z,29.76
2022-08-05T13:49:23.377Z,29.09
2022-08-05T13:51:51.446Z,29.95
2022-08-05T13:54:25.078Z,29.17
2022-08-05T13:56:53.428Z,29.83
2022-08-05T13:59:25.041Z,29.86
2022-08-05T14:01:56.445Z,29.63
2022-08-05T14:04:50.599Z,29.57
2022-08-05T14:07:55.731Z,29.14
2022-08-05T14:10:11.503Z,30.31
2022-08-05T14:12:39.674Z,29.50
2022-08-05T14:16:04.903Z,29.12
2022-08-05T14:18:00.620Z,29.78
2022-08-05T14:20:30.848Z,30.14
2022-08-05T14:22:58.972Z,30.80
2022-08-05T14:25:28.126Z,30.58
2022-08-05T14:27:56.785Z,30.27
2022-08-05T14:30:27.990Z,30.75
2022-08-05T14:32:56.677Z,31.01
2022-08-05T14:35:37.039Z,30.83
2022-08-05T14:38:06.943Z,30.68
2022-08-05T14:40:54.920Z,30.33
2022-08-05T14:43:57.456Z,29.75
2022-08-05T14:46:11.062Z,29.19
2022-08-05T14:48:39.478Z,29.96
2022-08-05T14:51:08.503Z,29.89
2022-08-05T14:53:44.593Z,29.84
2022-08-05T14:56:13.330Z,29.93
2022-08-05T14:58:47.760Z,30.43
2022-08-05T15:01:37.102Z,30.92
2022-08-05T15:04:11.890Z,30.49
2022-08-05T15:06:40.420Z,29.92
2022-08-05T15:09:10.692Z,30.82
2022-08-05T15:11:52.580Z,30.97
2022-08-05T15:14:34.768Z,31.20
2022-08-05T15:17:46.322Z,31.11
2022-08-05T15:19:58.076Z,31.12
2022-08-05T15:22:26.928Z,30.98
2022-08-05T15:24:59.034Z,31.42
2022-08-05T15:27:32.255Z,31.10
2022-08-05T15:30:05.104Z,31.68
2022-08-05T15:32:33.145Z,31.49
2022-08-05T15:35:03.987Z,31.56
2022-08-05T15:38:33.631Z,31.64
2022-08-05T15:40:59.157Z,31.64
2022-08-05T15:43:20.045Z,31.98
2022-08-05T15:46:00.205Z,32.17
2022-08-05T15:48:30.017Z,32.59
2022-08-05T15:51:03.350Z,33.05
2022-08-05T15:53:38.106Z,33.18
2022-08-05T15:56:19.642Z,33.15
2022-08-05T15:58:48.684Z,32.93
2022-08-05T16:01:18.986Z,33.24
2022-08-05T16:03:50.894Z,33.26
2022-08-05T16:06:20.606Z,33.11
2022-08-05T16:08:55.309Z,33.56
2022-08-05T16:11:42.884Z,33.69
2022-08-05T16:14:17.105Z,33.97
2022-08-05T16:16:46.340Z,34.41
2022-08-05T16:19:25.617Z,34.02
2022-08-05T16:22:02.873Z,34.59
2022-08-05T16:24:41.872Z,34.26
2022-08-05T16:27:32.052Z,34.36
2022-08-05T16:30:23.111Z,34.60
2022-08-05T16:32:53.935Z,34.50
2022-08-05T16:35:27.702Z,34.56
2022-08-05T16:38:15.981Z,34.29
2022-08-05T16:40:47.658Z,34.75
2022-08-05T16:43:23.743Z,34.95
2022-08-05T16:46:04.214Z,34.87
2022-08-05T16:48:36.364Z,34.50
2022-08-05T16:51:09.178Z,35.40
2022-08-05T16:54:03.089Z,35.28
2022-08-05T16:56:27.717Z,34.95
2022-08-05T16:58:57.548Z,35.02
2022-08-05T17:01:25.965Z,35.07
2022-08-05T17:03:54.185Z,35.60
2022-08-05T17:06:24.452Z,35.18
2022-08-05T17:08:54.447Z,36.05
2022-08-05T17:11:23.880Z,36.08
2022-08-05T17:14:00.263Z,36.21
2022-08-05T17:16:37.197Z,35.99
2022-08-05T17:19:07.324Z,36.30
2022-08-05T17:21:39.741Z,37.08
2022-08-05T17:24:28.172Z,37.50
2022-08-05T17:26:58.171Z,38.00
2022-08-05T17:29:39.859Z,37.13
2022-08-05T17:32:17.233Z,37.37
2022-08-05T17:34:47.665Z,37.96
2022-08-05T17:37:40.362Z,37.64
2022-08-05T17:40:05.764Z,37.73
2022-08-05T17:42:41.406Z,38.13
2022-08-05T17:45:21.147Z,37.97
2022-08-05T17:47:55.030Z,38.22
2022-08-05T17:50:29.045Z,37.91
2022-08-05T17:53:00.284Z,38.59
2022-08-05T17:55:38.350Z,38.26
2022-08-05T17:58:12.909Z,38.32
2022-08-05T18:00:44.620Z,38.52
2022-08-05T18:03:55.914Z,37.52
2022-08-05T18:06:11.455Z,38.13
2022-08-05T18:08:45.061Z,38.78
2022-08-05T18:11:23.953Z,38.48
2022-08-05T18:13:57.557Z,39.09
2022-08-05T18:16:27.704Z,39.53
2022-08-05T18:18:57.265Z,40.13
2022-08-05T18:21:26.352Z,40.37
2022-08-05T18:23:56.055Z,41.19
2022-08-05T18:26:27.765Z,41.77
2022-08-05T18:28:57.863Z,42.41
2022-08-05T18:31:25.950Z,42.78
2022-08-05T18:34:03.504Z,41.29
2022-08-05T18:36:35.389Z,41.22
2022-08-05T18:39:03.996Z,41.22
2022-08-05T18:41:54.958Z,40.78
2022-08-05T18:44:34.841Z,40.83
2022-08-05T18:47:04.119Z,40.85
2022-08-05T18:49:58.404Z,40.77
2022-08-05T18:52:35.680Z,41.06
2022-08-05T18:55:10.739Z,41.12
2022-08-05T18:57:43.626Z,41.33
2022-08-05T19:00:21.649Z,41.25
2022-08-05T19:02:56.976Z,41.77
2022-08-05T19:06:13.327Z,41.55
2022-08-05T19:08:15.326Z,42.40
2022-08-05T19:10:43.983Z,42.81
2022-08-05T19:13:15.939Z,43.28
2022-08-05T19:15:59.927Z,44.88
2022-08-05T19:18:31.248Z,45.49
2022-08-05T19:21:00.566Z,45.76
2022-08-05T19:24:06.876Z,48.25
2022-08-05T19:26:19.481Z,48.08
2022-08-05T19:28:47.437Z,49.36
2022-08-05T19:31:19.486Z,49.31
2022-08-05T19:33:56.656Z,49.35
2022-08-05T19:36:29.529Z,49.92
2022-08-05T19:39:00.707Z,50.04
2022-08-05T19:42:03.350Z,50.39
2022-08-05T19:44:19.327Z,51.86
2022-08-05T19:46:47.637Z,51.96
2022-08-05T19:49:18.477Z,50.35
2022-08-05T19:52:08.924Z,50.42
2022-08-05T19:54:37.163Z,50.48
2022-08-05T19:57:09.256Z,50.37
2022-08-05T19:59:56.343Z,51.39
2022-08-05T20:02:27.110Z,52.31
2022-08-05T20:04:55.530Z,52.42
2022-08-05T20:07:38.915Z,53.09
2022-08-05T20:10:16.998Z,52.42
2022-08-05T20:12:47.943Z,52.09
2022-08-05T20:15:48.951Z,52.49
2022-08-05T20:18:10.469Z,52.35
2022-08-05T20:20:55.030Z,51.99
2022-08-05T20:23:39.653Z,52.64
2022-08-05T20:26:15.843Z,52.92
2022-08-05T20:28:45.163Z,54.95
2022-08-05T20:31:13.132Z,55.51
2022-08-05T20:33:42.313Z,55.82
2022-08-05T20:36:11.234Z,57.33
2022-08-05T20:38:40.907Z,57.77
2022-08-05T20:41:24.036Z,58.49
2022-08-05T20:43:58.648Z,59.13
2022-08-05T20:46:29.528Z,59.74
2022-08-05T20:48:57.396Z,60.10
2022-08-05T20:51:25.348Z,59.74
2022-08-05T20:53:56.955Z,61.01
2022-08-05T20:56:32.954Z,62.13
2022-08-05T20:59:14.179Z,62.47
2022-08-05T21:01:47.238Z,62.81
2022-08-05T21:04:16.418Z,63.04
2022-08-05T21:06:45.751Z,63.24
2022-08-05T21:09:16.067Z,64.38
2022-08-05T21:12:06.525Z,64.98
2022-08-05T21:14:35.211Z,65.38
2022-08-05T21:17:05.369Z,64.97
2022-08-05T21:19:47.160Z,66.38
2022-08-05T21:22:21.826Z,66.85
2022-08-05T21:24:54.340Z,67.03
2022-08-05T21:27:25.560Z,66.27
2022-08-05T21:29:55.994Z,67.02
2022-08-05T21:32:26.568Z,67.93
2022-08-05T21:35:09.064Z,67.06
2022-08-05T21:37:47.373Z,66.57
2022-08-05T21:40:23.821Z,66.93
2022-08-05T21:42:53.908Z,67.30
2022-08-05T21:45:24.727Z,67.11
2022-08-05T21:48:08.175Z,67.20
2022-08-05T21:50:36.752Z,66.73
2022-08-05T21:53:16.353Z,66.58
2022-08-05T21:56:04.794Z,66.73
2022-08-05T21:58:34.672Z,67.96
2022-08-05T22:01:05.589Z,68.93
2022-08-05T22:03:49.007Z,68.83
2022-08-05T22:06:34.715Z,70.00
2022-08-05T22:09:13.615Z,70.20
2022-08-05T22:11:46.914Z,71.13
2022-08-05T22:14:33.713Z,71.05
2022-08-05T22:17:05.285Z,72.27
2022-08-05T22:20:02.013Z,72.82
2022-08-05T22:22:26.955Z,73.60
2022-08-05T22:25:18.159Z,73.75
2022-08-05T22:28:04.990Z,74.74
2022-08-05T22:30:55.566Z,75.35
2022-08-05T22:33:55.457Z,75.92
2022-08-05T22:36:14.585Z,75.38
2022-08-05T22:38:43.160Z,76.97
2022-08-05T22:41:11.157Z,77.72
2022-08-05T22:43:41.348Z,78.52
2022-08-05T22:46:13.367Z,79.40
2022-08-05T22:48:43.261Z,79.11
2022-08-05T22:51:15.605Z,78.96
2022-08-05T22:53:43.797Z,79.35
2022-08-05T22:56:30.361Z,80.22
2022-08-05T22:59:03.287Z,80.23
2022-08-05T23:02:04.178Z,80.57
2022-08-05T23:04:34.497Z,81.16
2022-08-05T23:07:02.809Z,82.04
2022-08-05T23:09:58.359Z,81.95
2022-08-05T23:12:20.436Z,81.72
2022-08-05T23:14:53.422Z,81.95
2022-08-05T23:17:32.674Z,82.40
2022-08-05T23:20:05.008Z,82.89
2022-08-05T23:22:33.359Z,82.73
2022-08-05T23:25:01.268Z,82.48
2022-08-05T23:27:42.221Z,82.64
2022-08-05T23:30:13.235Z,83.38
2022-08-05T23:32:45.326Z,83.95
2022-08-05T23:35:13.368Z,84.65
2022-08-05T23:37:41.574Z,84.21
2022-08-05T23:40:12.084Z,83.75
2022-08-05T23:42:47.375Z,84.37
2022-08-05T23:45:16.824Z,83.80
2022-08-05T23:47:47.845Z,84.75
2022-08-05T23:50:20.097Z,84.11
2022-08-05T23:52:49.905Z,84.74
2022-08-05T23:55:19.624Z,84.21
2022-08-05T23:57:51.111Z,85.35
